sensor_id;sensor_type;location;lat;lon;timestamp;P1;durP1;ratioP1;P2;durP2;ratioP2
70216;SDS011;65567;55.684;37.570;2023-07-02T00:00:29;8.50;;;7.03;;
70216;SDS011;65567;55.684;37.570;2023-07-02T00:02:55;9.70;;;6.38;;
70216;SDS011;65567;55.684;37.570;2023-07-02T00:05:21;7.28;;;6.05;;
70216;SDS011;65567;55.684;37.570;2023-07-02T00:07:47;10.77;;;6.47;;
70216;SDS011;65567;55.684;37.570;2023-07-02T00:10:12;8.63;;;6.47;;
70216;SDS011;65567;55.684;37.570;2023-07-02T00:12:38;8.82;;;6.35;;
70216;SDS011;65567;55.684;37.570;2023-07-02T00:15:04;12.10;;;6.68;;
70216;SDS011;65567;55.684;37.570;2023-07-02T00:17:30;7.50;;;6.22;;
70216;SDS011;65567;55.684;37.570;2023-07-02T00:19:56;8.73;;;6.40;;
70216;SDS011;65567;55.684;37.570;2023-07-02T00:22:21;7.82;;;5.97;;
70216;SDS011;65567;55.684;37.570;2023-07-02T00:24:47;8.63;;;6.32;;
70216;SDS011;65567;55.684;37.570;2023-07-02T00:27:15;8.18;;;6.60;;
70216;SDS011;65567;55.684;37.570;2023-07-02T00:29:41;8.32;;;6.32;;
70216;SDS011;65567;55.684;37.570;2023-07-02T00:32:06;8.25;;;6.72;;
70216;SDS011;65567;55.684;37.570;2023-07-02T00:34:32;7.13;;;6.15;;
70216;SDS011;65567;55.684;37.570;2023-07-02T00:36:58;8.07;;;6.47;;
70216;SDS011;65567;55.684;37.570;2023-07-02T00:39:23;9.43;;;6.60;;
70216;SDS011;65567;55.684;37.570;2023-07-02T00:41:49;8.13;;;6.30;;
70216;SDS011;65567;55.684;37.570;2023-07-02T00:44:15;8.27;;;6.60;;
70216;SDS011;65567;55.684;37.570;2023-07-02T00:46:40;10.15;;;7.10;;
70216;SDS011;65567;55.684;37.570;2023-07-02T00:49:06;10.35;;;6.60;;
70216;SDS011;65567;55.684;37.570;2023-07-02T00:51:34;9.38;;;6.15;;
70216;SDS011;65567;55.684;37.570;2023-07-02T00:54:00;8.68;;;5.97;;
70216;SDS011;65567;55.684;37.570;2023-07-02T00:56:26;6.63;;;5.93;;
70216;SDS011;65567;55.684;37.570;2023-07-02T00:58:55;7.75;;;6.20;;
70216;SDS011;65567;55.684;37.570;2023-07-02T01:01:24;7.80;;;6.00;;
70216;SDS011;65567;55.684;37.570;2023-07-02T01:03:53;9.70;;;6.40;;
70216;SDS011;65567;55.684;37.570;2023-07-02T01:06:25;7.35;;;5.85;;
70216;SDS011;65567;55.684;37.570;2023-07-02T01:08:56;8.25;;;6.47;;
70216;SDS011;65567;55.684;37.570;2023-07-02T01:12:06;7.32;;;6.10;;
70216;SDS011;65567;55.684;37.570;2023-07-02T01:16:51;11.23;;;6.07;;
70216;SDS011;65567;55.684;37.570;2023-07-02T01:19:20;8.10;;;5.97;;
70216;SDS011;65567;55.684;37.570;2023-07-02T01:21:50;11.82;;;5.88;;
70216;SDS011;65567;55.684;37.570;2023-07-02T01:24:17;8.45;;;6.15;;
70216;SDS011;65567;55.684;37.570;2023-07-02T01:26:43;8.40;;;5.72;;
70216;SDS011;65567;55.684;37.570;2023-07-02T01:31:40;7.63;;;5.60;;
70216;SDS011;65567;55.684;37.570;2023-07-02T01:34:06;6.97;;;4.70;;
70216;SDS011;65567;55.684;37.570;2023-07-02T01:36:33;10.13;;;5.90;;
70216;SDS011;65567;55.684;37.570;2023-07-02T01:38:59;6.85;;;5.13;;
70216;SDS011;65567;55.684;37.570;2023-07-02T01:41:24;7.53;;;5.07;;
70216;SDS011;65567;55.684;37.570;2023-07-02T01:43:50;6.78;;;4.43;;
70216;SDS011;65567;55.684;37.570;2023-07-02T01:46:16;7.72;;;5.38;;
70216;SDS011;65567;55.684;37.570;2023-07-02T01:48:41;8.48;;;5.40;;
70216;SDS011;65567;55.684;37.570;2023-07-02T01:51:07;8.23;;;4.78;;
70216;SDS011;65567;55.684;37.570;2023-07-02T01:53:33;6.38;;;4.78;;
70216;SDS011;65567;55.684;37.570;2023-07-02T01:55:59;8.55;;;4.93;;
70216;SDS011;65567;55.684;37.570;2023-07-02T01:58:24;7.32;;;4.70;;
70216;SDS011;65567;55.684;37.570;2023-07-02T02:00:50;6.32;;;4.82;;
70216;SDS011;65567;55.684;37.570;2023-07-02T02:03:16;5.30;;;4.80;;
70216;SDS011;65567;55.684;37.570;2023-07-02T02:05:42;7.60;;;5.13;;
70216;SDS011;65567;55.684;37.570;2023-07-02T02:08:07;5.78;;;4.68;;
70216;SDS011;65567;55.684;37.570;2023-07-02T02:10:33;8.85;;;5.03;;
70216;SDS011;65567;55.684;37.570;2023-07-02T02:12:59;5.63;;;4.32;;
70216;SDS011;65567;55.684;37.570;2023-07-02T02:15:24;7.28;;;4.88;;
70216;SDS011;65567;55.684;37.570;2023-07-02T02:17:50;7.70;;;4.85;;
70216;SDS011;65567;55.684;37.570;2023-07-02T02:20:16;7.32;;;4.53;;
70216;SDS011;65567;55.684;37.570;2023-07-02T02:22:42;7.68;;;4.25;;
70216;SDS011;65567;55.684;37.570;2023-07-02T02:25:07;5.50;;;4.43;;
70216;SDS011;65567;55.684;37.570;2023-07-02T02:27:34;6.57;;;4.72;;
70216;SDS011;65567;55.684;37.570;2023-07-02T02:30:12;7.18;;;4.25;;
70216;SDS011;65567;55.684;37.570;2023-07-02T02:33:08;5.00;;;3.65;;
70216;SDS011;65567;55.684;37.570;2023-07-02T02:35:34;6.43;;;3.92;;
70216;SDS011;65567;55.684;37.570;2023-07-02T02:38:01;7.50;;;4.15;;
70216;SDS011;65567;55.684;37.570;2023-07-02T02:40:29;6.43;;;4.20;;
70216;SDS011;65567;55.684;37.570;2023-07-02T02:42:55;6.78;;;4.57;;
70216;SDS011;65567;55.684;37.570;2023-07-02T02:45:21;4.43;;;3.78;;
70216;SDS011;65567;55.684;37.570;2023-07-02T02:47:46;6.28;;;4.15;;
70216;SDS011;65567;55.684;37.570;2023-07-02T02:50:12;6.82;;;3.92;;
70216;SDS011;65567;55.684;37.570;2023-07-02T02:52:38;5.65;;;4.00;;
70216;SDS011;65567;55.684;37.570;2023-07-02T02:55:05;6.38;;;3.92;;
70216;SDS011;65567;55.684;37.570;2023-07-02T02:57:32;5.22;;;3.92;;
70216;SDS011;65567;55.684;37.570;2023-07-02T02:59:58;5.15;;;4.10;;
70216;SDS011;65567;55.684;37.570;2023-07-02T03:02:24;6.55;;;4.28;;
70216;SDS011;65567;55.684;37.570;2023-07-02T03:04:50;6.97;;;4.47;;
70216;SDS011;65567;55.684;37.570;2023-07-02T03:07:17;5.30;;;3.88;;
70216;SDS011;65567;55.684;37.570;2023-07-02T03:09:43;7.82;;;4.30;;
70216;SDS011;65567;55.684;37.570;2023-07-02T03:12:08;6.22;;;4.38;;
70216;SDS011;65567;55.684;37.570;2023-07-02T03:14:34;7.03;;;4.28;;
70216;SDS011;65567;55.684;37.570;2023-07-02T03:17:00;6.68;;;4.40;;
70216;SDS011;65567;55.684;37.570;2023-07-02T03:19:26;6.22;;;4.47;;
70216;SDS011;65567;55.684;37.570;2023-07-02T03:21:51;5.43;;;4.72;;
70216;SDS011;65567;55.684;37.570;2023-07-02T03:24:17;8.30;;;4.68;;
70216;SDS011;65567;55.684;37.570;2023-07-02T03:26:43;7.53;;;4.88;;
70216;SDS011;65567;55.684;37.570;2023-07-02T03:29:10;6.55;;;4.40;;
70216;SDS011;65567;55.684;37.570;2023-07-02T03:31:36;7.50;;;4.85;;
70216;SDS011;65567;55.684;37.570;2023-07-02T03:34:03;5.93;;;4.15;;
70216;SDS011;65567;55.684;37.570;2023-07-02T03:38:59;6.72;;;4.63;;
70216;SDS011;65567;55.684;37.570;2023-07-02T03:41:24;6.00;;;4.60;;
70216;SDS011;65567;55.684;37.570;2023-07-02T03:43:50;5.57;;;4.10;;
70216;SDS011;65567;55.684;37.570;2023-07-02T03:46:16;6.88;;;5.18;;
70216;SDS011;65567;55.684;37.570;2023-07-02T03:48:41;8.07;;;5.22;;
70216;SDS011;65567;55.684;37.570;2023-07-02T03:51:07;6.30;;;4.18;;
70216;SDS011;65567;55.684;37.570;2023-07-02T03:53:33;6.00;;;4.70;;
70216;SDS011;65567;55.684;37.570;2023-07-02T03:55:59;6.60;;;4.55;;
70216;SDS011;65567;55.684;37.570;2023-07-02T03:58:25;6.07;;;4.90;;
70216;SDS011;65567;55.684;37.570;2023-07-02T04:00:51;5.80;;;4.20;;
70216;SDS011;65567;55.684;37.570;2023-07-02T04:03:16;5.10;;;3.95;;
70216;SDS011;65567;55.684;37.570;2023-07-02T04:05:43;5.78;;;4.00;;
70216;SDS011;65567;55.684;37.570;2023-07-02T04:08:09;6.65;;;3.95;;
70216;SDS011;65567;55.684;37.570;2023-07-02T04:10:35;6.60;;;3.78;;
70216;SDS011;65567;55.684;37.570;2023-07-02T04:13:01;6.70;;;4.28;;
70216;SDS011;65567;55.684;37.570;2023-07-02T04:15:26;6.50;;;4.93;;
70216;SDS011;65567;55.684;37.570;2023-07-02T04:17:52;7.47;;;4.93;;
70216;SDS011;65567;55.684;37.570;2023-07-02T04:20:19;6.05;;;4.05;;
70216;SDS011;65567;55.684;37.570;2023-07-02T04:22:45;6.75;;;4.43;;
70216;SDS011;65567;55.684;37.570;2023-07-02T04:25:11;7.00;;;3.90;;
70216;SDS011;65567;55.684;37.570;2023-07-02T04:27:40;6.20;;;4.22;;
70216;SDS011;65567;55.684;37.570;2023-07-02T04:30:07;5.93;;;4.35;;
70216;SDS011;65567;55.684;37.570;2023-07-02T04:32:35;7.35;;;4.97;;
70216;SDS011;65567;55.684;37.570;2023-07-02T04:35:01;9.15;;;4.40;;
70216;SDS011;65567;55.684;37.570;2023-07-02T04:37:27;7.03;;;4.68;;
70216;SDS011;65567;55.684;37.570;2023-07-02T04:39:53;8.00;;;4.70;;
70216;SDS011;65567;55.684;37.570;2023-07-02T04:42:19;8.65;;;4.93;;
70216;SDS011;65567;55.684;37.570;2023-07-02T04:44:45;5.70;;;4.20;;
70216;SDS011;65567;55.684;37.570;2023-07-02T04:47:11;6.82;;;4.05;;
70216;SDS011;65567;55.684;37.570;2023-07-02T04:49:37;6.10;;;3.80;;
70216;SDS011;65567;55.684;37.570;2023-07-02T04:52:04;7.97;;;4.25;;
70216;SDS011;65567;55.684;37.570;2023-07-02T04:54:30;6.30;;;3.90;;
70216;SDS011;65567;55.684;37.570;2023-07-02T04:56:56;11.35;;;4.75;;
70216;SDS011;65567;55.684;37.570;2023-07-02T04:59:24;7.25;;;4.57;;
70216;SDS011;65567;55.684;37.570;2023-07-02T05:01:49;7.15;;;4.18;;
70216;SDS011;65567;55.684;37.570;2023-07-02T05:04:15;7.75;;;4.05;;
70216;SDS011;65567;55.684;37.570;2023-07-02T05:06:41;10.60;;;6.50;;
70216;SDS011;65567;55.684;37.570;2023-07-02T05:09:07;6.28;;;4.45;;
70216;SDS011;65567;55.684;37.570;2023-07-02T05:11:32;7.63;;;4.28;;
70216;SDS011;65567;55.684;37.570;2023-07-02T05:13:58;7.47;;;4.18;;
70216;SDS011;65567;55.684;37.570;2023-07-02T05:16:24;6.32;;;4.60;;
70216;SDS011;65567;55.684;37.570;2023-07-02T05:18:50;5.70;;;3.88;;
70216;SDS011;65567;55.684;37.570;2023-07-02T05:21:18;5.63;;;3.92;;
70216;SDS011;65567;55.684;37.570;2023-07-02T05:23:45;8.97;;;4.20;;
70216;SDS011;65567;55.684;37.570;2023-07-02T05:26:10;5.82;;;3.83;;
70216;SDS011;65567;55.684;37.570;2023-07-02T05:28:36;6.35;;;3.75;;
70216;SDS011;65567;55.684;37.570;2023-07-02T05:31:02;7.43;;;4.40;;
70216;SDS011;65567;55.684;37.570;2023-07-02T05:33:27;8.20;;;4.30;;
70216;SDS011;65567;55.684;37.570;2023-07-02T05:35:53;7.70;;;4.47;;
70216;SDS011;65567;55.684;37.570;2023-07-02T05:38:19;6.60;;;4.25;;
70216;SDS011;65567;55.684;37.570;2023-07-02T05:40:45;6.45;;;3.90;;
70216;SDS011;65567;55.684;37.570;2023-07-02T05:43:11;7.22;;;3.95;;
70216;SDS011;65567;55.684;37.570;2023-07-02T05:45:37;6.80;;;3.80;;
70216;SDS011;65567;55.684;37.570;2023-07-02T05:48:02;7.30;;;4.00;;
70216;SDS011;65567;55.684;37.570;2023-07-02T05:50:28;4.95;;;3.70;;
70216;SDS011;65567;55.684;37.570;2023-07-02T05:52:54;8.65;;;3.70;;
70216;SDS011;65567;55.684;37.570;2023-07-02T05:55:19;6.60;;;3.65;;
70216;SDS011;65567;55.684;37.570;2023-07-02T05:57:45;5.65;;;3.70;;
70216;SDS011;65567;55.684;37.570;2023-07-02T06:00:11;5.53;;;3.40;;
70216;SDS011;65567;55.684;37.570;2023-07-02T06:02:37;6.03;;;3.80;;
70216;SDS011;65567;55.684;37.570;2023-07-02T06:05:03;7.60;;;3.65;;
70216;SDS011;65567;55.684;37.570;2023-07-02T06:07:30;5.30;;;3.65;;
70216;SDS011;65567;55.684;37.570;2023-07-02T06:09:55;5.72;;;3.70;;
70216;SDS011;65567;55.684;37.570;2023-07-02T06:12:21;4.82;;;3.35;;
70216;SDS011;65567;55.684;37.570;2023-07-02T06:14:47;6.78;;;3.92;;
70216;SDS011;65567;55.684;37.570;2023-07-02T06:17:13;7.28;;;3.35;;
70216;SDS011;65567;55.684;37.570;2023-07-02T06:19:40;6.85;;;3.50;;
70216;SDS011;65567;55.684;37.570;2023-07-02T06:22:06;6.75;;;3.42;;
70216;SDS011;65567;55.684;37.570;2023-07-02T06:24:32;5.82;;;3.70;;
70216;SDS011;65567;55.684;37.570;2023-07-02T06:26:57;4.53;;;3.67;;
70216;SDS011;65567;55.684;37.570;2023-07-02T06:29:23;5.13;;;3.45;;
70216;SDS011;65567;55.684;37.570;2023-07-02T06:31:49;5.57;;;3.92;;
70216;SDS011;65567;55.684;37.570;2023-07-02T06:34:15;7.13;;;4.40;;
70216;SDS011;65567;55.684;37.570;2023-07-02T06:36:41;5.75;;;3.70;;
70216;SDS011;65567;55.684;37.570;2023-07-02T06:39:07;5.85;;;3.28;;
70216;SDS011;65567;55.684;37.570;2023-07-02T06:41:34;7.38;;;3.60;;
70216;SDS011;65567;55.684;37.570;2023-07-02T06:44:01;8.82;;;4.50;;
70216;SDS011;65567;55.684;37.570;2023-07-02T06:46:27;5.82;;;3.30;;
70216;SDS011;65567;55.684;37.570;2023-07-02T06:48:53;5.00;;;2.95;;
70216;SDS011;65567;55.684;37.570;2023-07-02T06:51:18;6.10;;;3.33;;
70216;SDS011;65567;55.684;37.570;2023-07-02T06:53:45;5.63;;;3.25;;
70216;SDS011;65567;55.684;37.570;2023-07-02T06:56:11;5.55;;;3.80;;
70216;SDS011;65567;55.684;37.570;2023-07-02T06:58:37;5.65;;;3.55;;
70216;SDS011;65567;55.684;37.570;2023-07-02T07:01:05;6.97;;;3.72;;
70216;SDS011;65567;55.684;37.570;2023-07-02T07:03:33;4.28;;;3.25;;
70216;SDS011;65567;55.684;37.570;2023-07-02T07:05:59;4.53;;;3.28;;
70216;SDS011;65567;55.684;37.570;2023-07-02T07:08:25;5.55;;;3.03;;
70216;SDS011;65567;55.684;37.570;2023-07-02T07:10:51;7.57;;;3.17;;
70216;SDS011;65567;55.684;37.570;2023-07-02T07:13:17;4.03;;;2.72;;
70216;SDS011;65567;55.684;37.570;2023-07-02T07:15:42;6.88;;;3.42;;
70216;SDS011;65567;55.684;37.570;2023-07-02T07:18:08;7.03;;;2.90;;
70216;SDS011;65567;55.684;37.570;2023-07-02T07:20:35;5.20;;;2.97;;
70216;SDS011;65567;55.684;37.570;2023-07-02T07:23:03;8.88;;;3.40;;
70216;SDS011;65567;55.684;37.570;2023-07-02T07:25:30;6.22;;;3.00;;
70216;SDS011;65567;55.684;37.570;2023-07-02T07:27:56;5.53;;;3.17;;
70216;SDS011;65567;55.684;37.570;2023-07-02T07:30:22;6.10;;;3.30;;
70216;SDS011;65567;55.684;37.570;2023-07-02T07:32:49;6.57;;;3.47;;
70216;SDS011;65567;55.684;37.570;2023-07-02T07:35:15;4.90;;;3.22;;
70216;SDS011;65567;55.684;37.570;2023-07-02T07:37:42;8.38;;;3.40;;
70216;SDS011;65567;55.684;37.570;2023-07-02T07:40:08;10.35;;;2.90;;
70216;SDS011;65567;55.684;37.570;2023-07-02T07:42:34;8.98;;;3.05;;
70216;SDS011;65567;55.684;37.570;2023-07-02T07:45:00;5.03;;;3.00;;
70216;SDS011;65567;55.684;37.570;2023-07-02T07:47:25;5.15;;;3.03;;
70216;SDS011;65567;55.684;37.570;2023-07-02T07:49:51;5.32;;;3.03;;
70216;SDS011;65567;55.684;37.570;2023-07-02T07:52:16;6.15;;;3.00;;
70216;SDS011;65567;55.684;37.570;2023-07-02T07:54:42;5.22;;;2.92;;
70216;SDS011;65567;55.684;37.570;2023-07-02T07:57:08;6.07;;;3.13;;
70216;SDS011;65567;55.684;37.570;2023-07-02T07:59:34;4.70;;;3.00;;
70216;SDS011;65567;55.684;37.570;2023-07-02T08:02:00;5.70;;;3.40;;
70216;SDS011;65567;55.684;37.570;2023-07-02T08:04:25;10.05;;;3.30;;
70216;SDS011;65567;55.684;37.570;2023-07-02T08:06:51;5.57;;;3.10;;
70216;SDS011;65567;55.684;37.570;2023-07-02T08:09:17;7.13;;;3.30;;
70216;SDS011;65567;55.684;37.570;2023-07-02T08:11:42;6.90;;;3.33;;
70216;SDS011;65567;55.684;37.570;2023-07-02T08:14:08;5.40;;;3.10;;
70216;SDS011;65567;55.684;37.570;2023-07-02T08:16:34;6.18;;;3.10;;
70216;SDS011;65567;55.684;37.570;2023-07-02T08:19:00;5.55;;;3.50;;
70216;SDS011;65567;55.684;37.570;2023-07-02T08:21:26;5.97;;;3.25;;
70216;SDS011;65567;55.684;37.570;2023-07-02T08:23:52;5.28;;;3.33;;
70216;SDS011;65567;55.684;37.570;2023-07-02T08:26:18;7.00;;;3.28;;
70216;SDS011;65567;55.684;37.570;2023-07-02T08:28:44;7.78;;;3.25;;
70216;SDS011;65567;55.684;37.570;2023-07-02T08:31:09;6.63;;;3.13;;
70216;SDS011;65567;55.684;37.570;2023-07-02T08:33:35;7.57;;;3.50;;
70216;SDS011;65567;55.684;37.570;2023-07-02T08:36:01;5.68;;;3.03;;
70216;SDS011;65567;55.684;37.570;2023-07-02T08:38:26;6.90;;;3.00;;
70216;SDS011;65567;55.684;37.570;2023-07-02T08:40:52;5.55;;;3.15;;
70216;SDS011;65567;55.684;37.570;2023-07-02T08:43:18;7.72;;;3.38;;
70216;SDS011;65567;55.684;37.570;2023-07-02T08:45:43;5.85;;;3.30;;
70216;SDS011;65567;55.684;37.570;2023-07-02T08:48:10;5.40;;;3.17;;
70216;SDS011;65567;55.684;37.570;2023-07-02T08:50:36;6.53;;;3.03;;
70216;SDS011;65567;55.684;37.570;2023-07-02T08:53:02;7.03;;;3.33;;
70216;SDS011;65567;55.684;37.570;2023-07-02T08:55:28;9.20;;;3.40;;
70216;SDS011;65567;55.684;37.570;2023-07-02T08:57:56;5.32;;;2.88;;
70216;SDS011;65567;55.684;37.570;2023-07-02T09:00:25;7.20;;;3.22;;
70216;SDS011;65567;55.684;37.570;2023-07-02T09:02:56;5.80;;;3.30;;
70216;SDS011;65567;55.684;37.570;2023-07-02T09:05:22;5.00;;;2.83;;
70216;SDS011;65567;55.684;37.570;2023-07-02T09:07:48;5.82;;;3.10;;
70216;SDS011;65567;55.684;37.570;2023-07-02T09:10:25;4.10;;;2.72;;
70216;SDS011;65567;55.684;37.570;2023-07-02T09:13:07;5.85;;;3.05;;
70216;SDS011;65567;55.684;37.570;2023-07-02T09:15:40;7.47;;;4.35;;
70216;SDS011;65567;55.684;37.570;2023-07-02T09:20:45;6.18;;;3.40;;
70216;SDS011;65567;55.684;37.570;2023-07-02T09:23:11;6.18;;;3.05;;
70216;SDS011;65567;55.684;37.570;2023-07-02T09:25:37;8.32;;;3.45;;
70216;SDS011;65567;55.684;37.570;2023-07-02T09:28:17;6.95;;;3.50;;
70216;SDS011;65567;55.684;37.570;2023-07-02T09:30:51;5.85;;;3.13;;
70216;SDS011;65567;55.684;37.570;2023-07-02T09:33:24;5.38;;;3.17;;
70216;SDS011;65567;55.684;37.570;2023-07-02T09:35:50;5.95;;;3.20;;
70216;SDS011;65567;55.684;37.570;2023-07-02T09:38:17;5.22;;;3.60;;
70216;SDS011;65567;55.684;37.570;2023-07-02T09:40:49;4.68;;;3.47;;
70216;SDS011;65567;55.684;37.570;2023-07-02T09:43:16;5.13;;;3.25;;
70216;SDS011;65567;55.684;37.570;2023-07-02T09:45:46;8.63;;;3.28;;
70216;SDS011;65567;55.684;37.570;2023-07-02T09:48:13;5.10;;;3.20;;
70216;SDS011;65567;55.684;37.570;2023-07-02T09:50:43;10.05;;;3.20;;
70216;SDS011;65567;55.684;37.570;2023-07-02T09:53:10;7.00;;;3.10;;
70216;SDS011;65567;55.684;37.570;2023-07-02T09:55:36;5.90;;;3.40;;
70216;SDS011;65567;55.684;37.570;2023-07-02T09:58:07;9.13;;;2.80;;
70216;SDS011;65567;55.684;37.570;2023-07-02T10:00:33;7.63;;;3.10;;
70216;SDS011;65567;55.684;37.570;2023-07-02T10:02:59;6.00;;;3.30;;
70216;SDS011;65567;55.684;37.570;2023-07-02T10:05:32;4.22;;;3.05;;
70216;SDS011;65567;55.684;37.570;2023-07-02T10:07:59;7.15;;;3.00;;
70216;SDS011;65567;55.684;37.570;2023-07-02T10:10:46;5.60;;;3.30;;
70216;SDS011;65567;55.684;37.570;2023-07-02T10:13:12;6.53;;;3.40;;
70216;SDS011;65567;55.684;37.570;2023-07-02T10:15:38;7.78;;;3.20;;
70216;SDS011;65567;55.684;37.570;2023-07-02T10:18:05;5.90;;;3.30;;
70216;SDS011;65567;55.684;37.570;2023-07-02T10:20:32;4.40;;;3.00;;
70216;SDS011;65567;55.684;37.570;2023-07-02T10:23:08;5.35;;;3.38;;
70216;SDS011;65567;55.684;37.570;2023-07-02T10:25:35;7.63;;;3.30;;
70216;SDS011;65567;55.684;37.570;2023-07-02T10:28:18;3.75;;;3.10;;
70216;SDS011;65567;55.684;37.570;2023-07-02T10:30:47;7.85;;;3.17;;
70216;SDS011;65567;55.684;37.570;2023-07-02T10:33:17;8.35;;;3.20;;
70216;SDS011;65567;55.684;37.570;2023-07-02T10:35:47;5.65;;;3.38;;
70216;SDS011;65567;55.684;37.570;2023-07-02T10:38:19;9.25;;;3.50;;
70216;SDS011;65567;55.684;37.570;2023-07-02T10:40:46;7.80;;;3.60;;
70216;SDS011;65567;55.684;37.570;2023-07-02T10:43:12;8.27;;;3.63;;
70216;SDS011;65567;55.684;37.570;2023-07-02T10:45:38;8.30;;;3.10;;
70216;SDS011;65567;55.684;37.570;2023-07-02T10:48:07;7.50;;;3.58;;
70216;SDS011;65567;55.684;37.570;2023-07-02T10:50:34;6.93;;;3.20;;
70216;SDS011;65567;55.684;37.570;2023-07-02T10:53:00;6.90;;;3.30;;
70216;SDS011;65567;55.684;37.570;2023-07-02T10:55:26;6.15;;;3.50;;
70216;SDS011;65567;55.684;37.570;2023-07-02T10:58:03;6.50;;;3.10;;
70216;SDS011;65567;55.684;37.570;2023-07-02T11:00:30;5.32;;;2.63;;
70216;SDS011;65567;55.684;37.570;2023-07-02T11:02:56;6.57;;;3.05;;
70216;SDS011;65567;55.684;37.570;2023-07-02T11:05:23;5.72;;;3.05;;
70216;SDS011;65567;55.684;37.570;2023-07-02T11:07:49;7.90;;;3.13;;
70216;SDS011;65567;55.684;37.570;2023-07-02T11:10:22;7.40;;;3.33;;
70216;SDS011;65567;55.684;37.570;2023-07-02T11:12:48;5.55;;;3.00;;
70216;SDS011;65567;55.684;37.570;2023-07-02T11:15:14;5.25;;;3.05;;
70216;SDS011;65567;55.684;37.570;2023-07-02T11:17:42;6.60;;;2.53;;
70216;SDS011;65567;55.684;37.570;2023-07-02T11:20:08;7.45;;;3.33;;
70216;SDS011;65567;55.684;37.570;2023-07-02T11:22:36;5.80;;;2.78;;
70216;SDS011;65567;55.684;37.570;2023-07-02T11:25:08;6.50;;;2.80;;
70216;SDS011;65567;55.684;37.570;2023-07-02T11:27:37;4.45;;;2.38;;
70216;SDS011;65567;55.684;37.570;2023-07-02T11:30:04;4.82;;;2.25;;
70216;SDS011;65567;55.684;37.570;2023-07-02T11:32:30;5.55;;;2.50;;
70216;SDS011;65567;55.684;37.570;2023-07-02T11:34:56;5.55;;;2.45;;
70216;SDS011;65567;55.684;37.570;2023-07-02T11:37:22;4.82;;;2.50;;
70216;SDS011;65567;55.684;37.570;2023-07-02T11:39:48;5.85;;;2.60;;
70216;SDS011;65567;55.684;37.570;2023-07-02T11:42:13;8.32;;;2.85;;
70216;SDS011;65567;55.684;37.570;2023-07-02T11:44:40;6.47;;;3.03;;
70216;SDS011;65567;55.684;37.570;2023-07-02T11:47:06;6.22;;;2.83;;
70216;SDS011;65567;55.684;37.570;2023-07-02T11:49:32;5.25;;;2.75;;
70216;SDS011;65567;55.684;37.570;2023-07-02T11:51:57;4.70;;;2.72;;
70216;SDS011;65567;55.684;37.570;2023-07-02T11:54:24;4.93;;;2.83;;
70216;SDS011;65567;55.684;37.570;2023-07-02T11:56:49;6.90;;;2.83;;
70216;SDS011;65567;55.684;37.570;2023-07-02T11:59:15;7.38;;;2.97;;
70216;SDS011;65567;55.684;37.570;2023-07-02T12:01:41;9.57;;;3.25;;
70216;SDS011;65567;55.684;37.570;2023-07-02T12:04:07;5.90;;;2.70;;
70216;SDS011;65567;55.684;37.570;2023-07-02T12:06:36;5.28;;;2.75;;
70216;SDS011;65567;55.684;37.570;2023-07-02T12:09:02;6.15;;;2.85;;
70216;SDS011;65567;55.684;37.570;2023-07-02T12:11:28;5.60;;;2.83;;
70216;SDS011;65567;55.684;37.570;2023-07-02T12:13:54;8.27;;;3.00;;
70216;SDS011;65567;55.684;37.570;2023-07-02T12:16:19;8.40;;;2.88;;
70216;SDS011;65567;55.684;37.570;2023-07-02T12:18:45;4.40;;;2.90;;
70216;SDS011;65567;55.684;37.570;2023-07-02T12:21:11;4.90;;;2.85;;
70216;SDS011;65567;55.684;37.570;2023-07-02T12:23:36;7.47;;;2.75;;
70216;SDS011;65567;55.684;37.570;2023-07-02T12:26:02;5.70;;;3.10;;
70216;SDS011;65567;55.684;37.570;2023-07-02T12:28:28;6.72;;;3.25;;
70216;SDS011;65567;55.684;37.570;2023-07-02T12:30:53;5.93;;;3.30;;
70216;SDS011;65567;55.684;37.570;2023-07-02T12:33:19;7.18;;;3.00;;
70216;SDS011;65567;55.684;37.570;2023-07-02T12:35:45;6.00;;;3.22;;
70216;SDS011;65567;55.684;37.570;2023-07-02T12:38:11;7.95;;;3.35;;
70216;SDS011;65567;55.684;37.570;2023-07-02T12:40:37;6.97;;;3.13;;
70216;SDS011;65567;55.684;37.570;2023-07-02T12:43:03;7.47;;;4.32;;
70216;SDS011;65567;55.684;37.570;2023-07-02T12:45:29;5.82;;;3.47;;
70216;SDS011;65567;55.684;37.570;2023-07-02T12:47:56;5.03;;;3.08;;
70216;SDS011;65567;55.684;37.570;2023-07-02T12:50:22;5.32;;;3.20;;
70216;SDS011;65567;55.684;37.570;2023-07-02T12:52:48;8.98;;;3.45;;
70216;SDS011;65567;55.684;37.570;2023-07-02T12:55:14;7.22;;;3.88;;
70216;SDS011;65567;55.684;37.570;2023-07-02T12:57:39;7.22;;;3.47;;
70216;SDS011;65567;55.684;37.570;2023-07-02T13:00:05;5.35;;;3.75;;
70216;SDS011;65567;55.684;37.570;2023-07-02T13:02:33;6.93;;;3.75;;
70216;SDS011;65567;55.684;37.570;2023-07-02T13:04:59;5.32;;;3.50;;
70216;SDS011;65567;55.684;37.570;2023-07-02T13:07:25;5.80;;;3.67;;
70216;SDS011;65567;55.684;37.570;2023-07-02T13:09:51;5.32;;;3.17;;
70216;SDS011;65567;55.684;37.570;2023-07-02T13:12:16;6.30;;;3.75;;
70216;SDS011;65567;55.684;37.570;2023-07-02T13:14:43;6.28;;;3.90;;
70216;SDS011;65567;55.684;37.570;2023-07-02T13:17:08;6.32;;;3.67;;
70216;SDS011;65567;55.684;37.570;2023-07-02T13:19:34;6.30;;;3.97;;
70216;SDS011;65567;55.684;37.570;2023-07-02T13:22:00;8.20;;;3.85;;
70216;SDS011;65567;55.684;37.570;2023-07-02T13:24:28;5.63;;;3.47;;
70216;SDS011;65567;55.684;37.570;2023-07-02T13:27:00;7.10;;;3.83;;
70216;SDS011;65567;55.684;37.570;2023-07-02T13:29:27;7.07;;;3.90;;
70216;SDS011;65567;55.684;37.570;2023-07-02T13:31:53;9.73;;;3.53;;
70216;SDS011;65567;55.684;37.570;2023-07-02T13:34:19;6.20;;;4.15;;
70216;SDS011;65567;55.684;37.570;2023-07-02T13:36:44;8.15;;;3.60;;
70216;SDS011;65567;55.684;37.570;2023-07-02T13:39:10;6.57;;;3.40;;
70216;SDS011;65567;55.684;37.570;2023-07-02T13:41:36;5.28;;;3.60;;
70216;SDS011;65567;55.684;37.570;2023-07-02T13:44:02;7.07;;;3.30;;
70216;SDS011;65567;55.684;37.570;2023-07-02T13:46:27;6.85;;;3.90;;
70216;SDS011;65567;55.684;37.570;2023-07-02T13:48:53;5.80;;;3.30;;
70216;SDS011;65567;55.684;37.570;2023-07-02T13:51:19;7.85;;;4.50;;
70216;SDS011;65567;55.684;37.570;2023-07-02T13:53:45;6.60;;;4.10;;
70216;SDS011;65567;55.684;37.570;2023-07-02T13:56:10;8.68;;;3.97;;
70216;SDS011;65567;55.684;37.570;2023-07-02T14:01:31;8.27;;;4.20;;
70216;SDS011;65567;55.684;37.570;2023-07-02T14:03:59;6.43;;;3.55;;
70216;SDS011;65567;55.684;37.570;2023-07-02T14:06:25;6.18;;;3.60;;
70216;SDS011;65567;55.684;37.570;2023-07-02T14:08:51;8.57;;;3.78;;
70216;SDS011;65567;55.684;37.570;2023-07-02T14:11:17;6.22;;;3.50;;
70216;SDS011;65567;55.684;37.570;2023-07-02T14:13:44;5.55;;;3.42;;
70216;SDS011;65567;55.684;37.570;2023-07-02T14:16:10;6.05;;;3.40;;
70216;SDS011;65567;55.684;37.570;2023-07-02T14:18:35;8.20;;;3.78;;
70216;SDS011;65567;55.684;37.570;2023-07-02T14:21:01;8.05;;;3.38;;
70216;SDS011;65567;55.684;37.570;2023-07-02T14:23:28;8.60;;;4.10;;
70216;SDS011;65567;55.684;37.570;2023-07-02T14:25:53;6.60;;;3.70;;
70216;SDS011;65567;55.684;37.570;2023-07-02T14:28:19;6.80;;;3.70;;
70216;SDS011;65567;55.684;37.570;2023-07-02T14:30:45;7.57;;;3.90;;
70216;SDS011;65567;55.684;37.570;2023-07-02T14:33:12;6.50;;;3.95;;
70216;SDS011;65567;55.684;37.570;2023-07-02T14:35:38;10.50;;;3.95;;
70216;SDS011;65567;55.684;37.570;2023-07-02T14:38:05;7.30;;;3.50;;
70216;SDS011;65567;55.684;37.570;2023-07-02T14:40:31;5.75;;;3.75;;
70216;SDS011;65567;55.684;37.570;2023-07-02T14:42:57;7.63;;;4.05;;